Time;durP1;ratioP1;P1;durP2;ratioP2;P2;SDS_P1;SDS_P2;PMS_P1;PMS_P2;Temp;Humidity;BMP_temperature;BMP_pressure;BME280_temperature;BME280_humidity;BME280_pressure;Samples;Min_cycle;Max_cycle;Signal;HPM_P1;HPM_P2
2022/04/11 00:00:20;;;;;;;11.18;2.50;;;;;;;16.86;56.71;100719.28;2080292;28;20045;-71
2022/04/11 00:01:43;;;;;;;17.65;2.53;;;;;;;16.86;56.69;100722.84;2080562;28;20042;-71
2022/04/11 00:03:06;;;;;;;9.52;2.58;;;;;;;16.87;56.67;100726.41;2074704;28;20137;-71
2022/04/11 00:04:29;;;;;;;10.35;1.13;;;;;;;16.87;56.66;100715.72;2076424;28;20076;-71
2022/04/11 00:05:51;;;;;;;13.98;2.05;;;;;;;16.87;56.57;100716.59;2082409;28;20264;-71
2022/04/11 00:07:14;;;;;;;13.20;2.65;;;;;;;16.86;56.45;100709.50;2074041;28;20096;-71
2022/04/11 00:08:36;;;;;;;3.92;1.05;;;;;;;16.87;56.42;100719.25;2074905;28;20515;-71
2022/04/11 00:09:58;;;;;;;13.45;1.85;;;;;;;16.87;56.26;100705.91;2077078;28;20045;-71
2022/04/11 00:11:20;;;;;;;9.13;1.77;;;;;;;16.88;55.80;100726.34;2080457;28;20049;-71
2022/04/11 00:12:44;;;;;;;2.47;1.05;;;;;;;16.89;55.71;100720.13;2082262;28;20072;-71
2022/04/11 00:14:07;;;;;;;11.77;1.77;;;;;;;16.90;55.23;100726.34;2081029;28;20132;-71
2022/04/11 00:15:30;;;;;;;7.13;1.38;;;;;;;16.91;55.12;100729.00;2069475;28;20104;-71
2022/04/11 00:16:52;;;;;;;10.35;1.42;;;;;;;16.92;55.12;100733.44;2074029;28;20049;-71
2022/04/11 00:18:14;;;;;;;13.32;1.60;;;;;;;16.93;55.03;100731.66;2077434;28;20456;-71
2022/04/11 00:19:37;;;;;;;9.02;1.38;;;;;;;16.91;55.01;100723.66;2076644;28;20137;-71
2022/04/11 00:20:58;;;;;;;13.38;2.38;;;;;;;16.91;54.85;100725.44;2080316;28;20552;-71
2022/04/11 00:22:21;;;;;;;12.57;2.15;;;;;;;16.88;54.80;100705.03;2084647;28;20064;-71
2022/04/11 00:23:42;;;;;;;14.90;1.60;;;;;;;16.85;54.66;100713.06;2072034;28;20545;-71
2022/04/11 00:25:06;;;;;;;7.72;1.23;;;;;;;16.83;54.60;100714.88;2066768;28;20056;-71
2022/04/11 00:26:27;;;;;;;8.80;1.40;;;;;;;16.79;54.25;100706.91;2073770;28;20061;-71
2022/04/11 00:27:52;;;;;;;5.57;1.85;;;;;;;16.77;54.27;100716.72;2076669;28;20076;-71
2022/04/11 00:29:15;;;;;;;5.53;1.05;;;;;;;16.72;54.12;100712.31;2068688;28;20061;-71
2022/04/11 00:30:37;;;;;;;12.02;1.48;;;;;;;16.71;53.77;100723.00;2068439;28;20075;-71
2022/04/11 00:32:00;;;;;;;8.88;1.30;;;;;;;16.69;53.43;100724.78;2074970;28;20493;-71
2022/04/11 00:33:21;;;;;;;10.60;1.45;;;;;;;16.70;53.19;100730.09;2077654;28;20041;-71
2022/04/11 00:34:44;;;;;;;9.07;2.05;;;;;;;16.69;52.98;100743.44;2069992;28;20120;-71
2022/04/11 00:36:07;;;;;;;7.90;1.23;;;;;;;16.69;52.92;100741.66;2069039;28;20050;-71
2022/04/11 00:37:28;;;;;;;7.47;1.35;;;;;;;16.69;52.83;100736.34;2073602;28;20037;-71
2022/04/11 00:38:52;;;;;;;8.35;1.40;;;;;;;16.72;52.64;100732.75;2070045;28;20365;-71
2022/04/11 00:40:13;;;;;;;7.03;1.48;;;;;;;16.68;52.25;100726.56;2076385;28;20055;-71
2022/04/11 00:41:35;;;;;;;4.50;0.88;;;;;;;16.67;51.69;100718.59;2076452;28;20077;-71
2022/04/11 00:42:58;;;;;;;5.32;0.82;;;;;;;16.65;50.99;100723.94;2086033;28;20461;-71
2022/04/11 00:44:21;;;;;;;8.73;1.30;;;;;;;16.63;50.42;100716.84;2080430;28;20075;-71
2022/04/11 00:45:44;;;;;;;3.95;1.05;;;;;;;16.61;49.17;100714.19;2088508;28;20070;-71
2022/04/11 00:47:07;;;;;;;6.95;0.88;;;;;;;16.59;48.93;100704.44;2074667;28;20050;-71
2022/04/11 00:48:28;;;;;;;4.82;0.90;;;;;;;16.57;48.08;100704.44;2074567;28;20041;-71
2022/04/11 00:49:55;;;;;;;8.18;1.10;;;;;;;16.55;47.65;100698.22;2065829;28;20084;-71
2022/04/11 00:51:21;;;;;;;6.53;0.88;;;;;;;16.52;46.84;100708.94;2076255;28;20041;-71
2022/04/11 00:52:48;;;;;;;5.88;1.20;;;;;;;16.50;46.49;100696.50;2079249;28;20144;-71
2022/04/11 00:54:10;;;;;;;3.70;0.65;;;;;;;16.45;46.21;100711.66;2077869;28;20057;-71
2022/04/11 00:55:34;;;;;;;4.43;0.95;;;;;;;16.41;45.74;100710.78;2072003;28;20057;-71
2022/04/11 00:56:59;;;;;;;5.72;0.90;;;;;;;16.38;45.66;100705.50;2077496;28;20061;-71
2022/04/11 00:58:23;;;;;;;9.15;1.08;;;;;;;16.34;44.94;100714.44;2085692;28;20059;-71
2022/04/11 00:59:45;;;;;;;2.20;0.63;;;;;;;16.29;44.50;100709.13;2071991;28;20077;-71
2022/04/11 01:01:08;;;;;;;6.20;0.95;;;;;;;16.30;44.41;100728.66;2065835;28;20116;-71
2022/04/11 01:02:30;;;;;;;2.95;0.80;;;;;;;16.27;44.30;100720.72;2074904;28;20041;-71
2022/04/11 01:03:53;;;;;;;6.43;0.60;;;;;;;16.25;43.88;100730.50;2077525;28;20088;-71
2022/04/11 01:05:15;;;;;;;4.97;0.95;;;;;;;16.21;43.31;100723.44;2071074;28;20049;-71
2022/04/11 01:06:38;;;;;;;2.70;0.80;;;;;;;16.19;43.22;100738.53;2069270;28;20050;-71
2022/04/11 01:08:06;;;;;;;4.57;1.23;;;;;;;16.18;42.98;100724.31;2073471;28;20072;-71
2022/04/11 01:09:29;;;;;;;4.30;0.80;;;;;;;16.16;42.65;100738.53;2079729;28;20077;-71
2022/04/11 01:10:53;;;;;;;5.70;1.40;;;;;;;16.13;42.23;100742.13;2076936;28;20064;-71
2022/04/11 01:12:17;;;;;;;6.68;1.38;;;;;;;16.12;42.60;100744.78;2077187;28;20509;-71
2022/04/11 01:13:43;;;;;;;3.00;0.80;;;;;;;16.09;42.59;100748.34;2068545;28;20077;-71
2022/04/11 01:15:06;;;;;;;3.15;0.60;;;;;;;16.05;42.67;100746.63;2068622;28;20053;-71
2022/04/11 01:16:29;;;;;;;6.32;1.13;;;;;;;16.01;42.81;100746.66;2074150;28;20049;-71
2022/04/11 01:17:51;;;;;;;6.40;1.02;;;;;;;15.95;42.90;100744.91;2076254;28;20132;-71
2022/04/11 01:19:13;;;;;;;8.07;1.70;;;;;;;15.90;42.89;100744.06;2071708;28;20053;-71
2022/04/11 01:20:36;;;;;;;6.63;1.33;;;;;;;15.86;42.87;100742.31;2067837;28;20057;-71
2022/04/11 01:22:00;;;;;;;3.67;0.65;;;;;;;15.84;42.83;100746.75;2082148;28;20036;-71
2022/04/11 01:23:22;;;;;;;7.32;1.10;;;;;;;15.81;42.76;100734.38;2074089;28;20050;-71
2022/04/11 01:24:45;;;;;;;3.80;0.98;;;;;;;15.82;42.68;100729.91;2077556;28;20049;-71
2022/04/11 01:26:08;;;;;;;5.78;0.88;;;;;;;15.81;42.73;100733.47;2079903;28;20061;-71
2022/04/11 01:27:31;;;;;;;4.07;0.63;;;;;;;15.77;42.86;100732.59;2076710;28;20037;-71
2022/04/11 01:28:54;;;;;;;;;;;;;;;15.77;42.42;100737.91;2073483;28;20129;-71
2022/04/11 01:30:17;;;;;;;5.60;0.80;;;;;;;15.76;42.62;100728.16;2069570;28;19926;-71
2022/04/11 01:31:43;;;;;;;4.88;0.90;;;;;;;15.74;42.59;100722.00;2072882;28;20088;-71
2022/04/11 01:33:19;;;;;;;4.45;0.82;;;;;;;15.75;42.45;100723.72;2077286;28;20045;-71
2022/04/11 01:34:41;;;;;;;3.22;0.80;;;;;;;15.70;42.47;100717.56;2079274;28;20053;-71
2022/04/11 01:36:05;;;;;;;4.20;1.27;;;;;;;15.67;42.38;100714.94;2070799;28;20064;-71
2022/04/11 01:37:28;;;;;;;7.97;1.13;;;;;;;15.66;42.07;100718.47;2075099;28;20049;-71
2022/04/11 01:38:50;;;;;;;6.28;0.88;;;;;;;15.67;42.15;100708.72;2067601;28;20045;-71
2022/04/11 01:40:13;;;;;;;4.47;0.77;;;;;;;15.69;41.87;100722.88;2077254;28;20069;-71
2022/04/11 01:41:36;;;;;;;1.80;0.82;;;;;;;15.69;41.90;100713.13;2070936;28;20506;-71
2022/04/11 01:42:57;;;;;;;3.47;0.65;;;;;;;15.69;41.68;100713.13;2077334;28;20046;-71
2022/04/11 01:44:20;;;;;;;8.20;1.35;;;;;;;15.67;41.58;100712.28;2083985;28;20049;-71
2022/04/11 01:45:42;;;;;;;4.32;1.15;;;;;;;15.64;41.63;100717.59;2071333;28;20050;-71
2022/04/11 01:47:05;;;;;;;3.88;0.98;;;;;;;15.61;41.49;100730.06;2066162;28;20054;-71
2022/04/11 01:48:27;;;;;;;8.25;1.10;;;;;;;15.59;41.67;100734.47;2075203;28;20183;-71
2022/04/11 01:49:50;;;;;;;3.90;0.82;;;;;;;15.59;41.64;100734.47;2087951;28;20174;-71
2022/04/11 01:51:13;;;;;;;6.60;0.95;;;;;;;15.58;41.68;100735.38;2079753;28;20119;-71
2022/04/11 01:52:36;;;;;;;9.55;1.45;;;;;;;15.56;41.74;100724.72;2067688;28;20419;-71
2022/04/11 01:53:59;;;;;;;5.85;0.98;;;;;;;15.53;41.76;100732.75;2081805;28;20049;-71
2022/04/11 01:55:20;;;;;;;4.68;0.95;;;;;;;15.51;41.85;100730.06;2063582;28;20050;-71
2022/04/11 01:56:44;;;;;;;9.70;1.60;;;;;;;15.50;41.88;100735.38;2076500;28;20077;-71
2022/04/11 01:58:07;;;;;;;5.35;1.20;;;;;;;15.50;42.01;100728.28;2068716;28;20635;-71
2022/04/11 01:59:30;;;;;;;2.22;0.73;;;;;;;15.48;41.92;100719.44;2074079;28;20140;-71
2022/04/11 02:00:53;;;;;;;2.92;0.70;;;;;;;15.47;41.97;100727.41;2068040;28;20048;-70
2022/04/11 02:02:16;;;;;;;10.82;0.80;;;;;;;15.41;42.12;100731.00;2061102;28;20438;-72
2022/04/11 02:03:39;;;;;;;8.15;1.30;;;;;;;15.36;42.35;100729.25;2074371;28;20119;-71
2022/04/11 02:05:02;;;;;;;7.95;1.38;;;;;;;15.33;42.39;100722.16;2071619;28;20050;-72
2022/04/11 02:06:24;;;;;;;3.75;0.77;;;;;;;15.30;42.51;100710.63;2063634;28;20050;-71
2022/04/11 02:07:47;;;;;;;3.10;0.60;;;;;;;15.26;42.63;100711.56;2057780;28;20166;-71
2022/04/11 02:09:10;;;;;;;3.88;0.77;;;;;;;15.25;42.68;100709.78;2068160;28;20115;-71
2022/04/11 02:10:32;;;;;;;4.20;0.70;;;;;;;15.25;42.41;100716.00;2065174;28;20046;-71
2022/04/11 02:11:55;;;;;;;2.92;0.80;;;;;;;15.26;42.30;100711.56;2066334;28;20088;-71
2022/04/11 02:13:18;;;;;;;10.07;1.17;;;;;;;15.26;42.13;100712.44;2063512;28;20048;-71
2022/04/11 02:14:41;;;;;;;8.32;1.65;;;;;;;15.26;41.94;100712.44;2063417;28;20557;-71
2022/04/11 02:16:04;;;;;;;6.70;1.80;;;;;;;15.26;41.99;100717.75;2064573;28;20042;-71
2022/04/11 02:17:27;;;;;;;6.60;0.90;;;;;;;15.28;41.72;100717.75;2070650;28;20558;-71
2022/04/11 02:18:50;;;;;;;15.52;1.45;;;;;;;15.27;41.63;100719.53;2068312;28;20077;-71
2022/04/11 02:20:12;;;;;;;9.73;1.27;;;;;;;15.26;41.54;100730.16;2066674;28;20144;-72
2022/04/11 02:21:34;;;;;;;6.40;0.93;;;;;;;15.23;41.55;100738.19;2066392;28;20770;-71
2022/04/11 02:22:59;;;;;;;6.20;0.90;;;;;;;15.22;41.71;100736.41;2073937;28;20077;-71
2022/04/11 02:24:21;;;;;;;6.65;1.10;;;;;;;15.16;41.87;100737.31;2077289;28;20506;-71
2022/04/11 02:25:44;;;;;;;1.38;0.40;;;;;;;15.11;42.17;100739.97;2076378;28;20087;-71
2022/04/11 02:27:05;;;;;;;4.50;0.68;;;;;;;15.05;42.40;100734.69;2061111;28;20054;-71
2022/04/11 02:28:28;;;;;;;5.03;1.27;;;;;;;14.99;42.81;100734.69;2058744;28;20102;-71
2022/04/11 02:29:50;;;;;;;1.80;0.65;;;;;;;14.84;43.21;100744.47;2056902;28;20042;-71
2022/04/11 02:31:13;;;;;;;5.78;0.55;;;;;;;14.73;43.31;100739.19;2070497;28;20541;-71
2022/04/11 02:32:36;;;;;;;4.20;0.77;;;;;;;14.70;43.16;100750.69;2073853;28;20173;-71
2022/04/11 02:33:59;;;;;;;7.70;0.73;;;;;;;14.77;42.76;100732.97;2067420;28;20053;-71
2022/04/11 02:35:20;;;;;;;2.78;0.50;;;;;;;14.87;42.33;100740.06;2073603;28;20045;-71
2022/04/11 02:36:44;;;;;;;8.52;1.05;;;;;;;15.02;42.15;100752.44;2067705;28;20107;-71
2022/04/11 02:38:07;;;;;;;7.20;0.82;;;;;;;15.10;42.11;100751.50;2074677;28;20057;-71
2022/04/11 02:39:30;;;;;;;8.57;1.33;;;;;;;15.10;42.33;100761.25;2060811;28;20042;-71
2022/04/11 02:40:51;;;;;;;5.00;1.15;;;;;;;15.06;42.55;100756.84;2058285;28;20632;-71
2022/04/11 02:42:22;;;;;;;7.18;1.10;;;;;;;15.07;42.66;100754.19;2065951;28;20070;-71
2022/04/11 02:43:45;;;;;;;6.90;1.10;;;;;;;15.09;42.62;100762.16;2068741;28;20084;-71
2022/04/11 02:45:09;;;;;;;5.43;1.33;;;;;;;15.14;42.60;100758.59;2066762;28;20513;-71
2022/04/11 02:46:32;;;;;;;8.73;1.08;;;;;;;15.18;42.59;100755.91;2075707;28;20061;-71
2022/04/11 02:47:55;;;;;;;5.15;1.02;;;;;;;15.20;42.70;100765.66;2069588;28;20135;-71
2022/04/11 02:49:18;;;;;;;7.72;1.73;;;;;;;15.22;42.79;100763.00;2072724;28;20037;-71
2022/04/11 02:50:47;;;;;;;5.20;0.70;;;;;;;15.22;42.79;100768.31;2071264;28;20058;-71
2022/04/11 02:52:13;;;;;;;8.13;1.08;;;;;;;15.24;42.75;100756.75;2075111;28;20047;-71
2022/04/11 02:53:38;;;;;;;5.75;0.80;;;;;;;15.28;42.85;100766.53;2070124;28;20062;-71
2022/04/11 02:55:01;;;;;;;9.43;1.00;;;;;;;15.31;42.83;100761.19;2074896;28;20053;-71
2022/04/11 02:56:23;;;;;;;5.18;0.77;;;;;;;15.33;42.72;100767.38;2069304;28;20465;-71
2022/04/11 02:57:47;;;;;;;4.10;0.70;;;;;;;15.34;42.88;100770.94;2069493;28;20116;-71
2022/04/11 02:59:09;;;;;;;5.45;0.70;;;;;;;15.33;42.89;100761.19;2074813;28;20033;-71
2022/04/11 03:00:34;;;;;;;4.07;0.90;;;;;;;15.32;42.99;100759.41;2078754;28;20545;-71
2022/04/11 03:01:58;;;;;;;2.22;0.65;;;;;;;15.29;43.00;100770.97;2072710;28;20149;-71
2022/04/11 03:03:21;;;;;;;7.60;1.48;;;;;;;15.30;42.85;100770.03;2075864;28;20045;-71
2022/04/11 03:04:45;;;;;;;9.35;1.17;;;;;;;15.28;42.77;100768.28;2072248;28;20064;-71
2022/04/11 03:06:13;;;;;;;3.67;0.80;;;;;;;15.32;42.51;100764.72;2070756;28;20054;-71
2022/04/11 03:07:36;;;;;;;6.10;1.10;;;;;;;15.34;42.41;100768.28;2070132;28;20434;-71
2022/04/11 03:09:00;;;;;;;4.70;1.23;;;;;;;15.40;42.40;100781.53;2065172;28;20065;-71
2022/04/11 03:10:28;;;;;;;3.47;0.73;;;;;;;15.40;42.30;100792.19;2070612;28;20045;-71
2022/04/11 03:11:57;;;;;;;6.22;1.13;;;;;;;15.40;42.33;100781.53;2070865;28;20061;-71
2022/04/11 03:13:20;;;;;;;4.65;0.65;;;;;;;15.37;42.16;100785.09;2066895;28;20038;-71
2022/04/11 03:14:41;;;;;;;3.88;0.80;;;;;;;15.39;42.33;100787.75;2075214;28;20080;-71
2022/04/11 03:16:06;;;;;;;8.00;1.90;;;;;;;15.41;42.32;100793.97;2069340;28;20216;-71
2022/04/11 03:17:29;;;;;;;10.43;0.95;;;;;;;15.41;42.51;100792.19;2069999;28;20045;-71
2022/04/11 03:18:52;;;;;;;8.85;0.70;;;;;;;15.43;42.43;100795.72;2068781;28;20037;-71
2022/04/11 03:20:15;;;;;;;12.13;1.33;;;;;;;15.46;42.48;100801.03;2069553;28;20061;-71
2022/04/11 03:21:39;;;;;;;5.70;1.05;;;;;;;15.45;42.55;100785.06;2067200;28;20498;-71
2022/04/11 03:23:06;;;;;;;6.13;0.90;;;;;;;15.46;42.53;100794.81;2070509;28;20057;-71
2022/04/11 03:24:34;;;;;;;4.30;0.90;;;;;;;15.47;42.53;100783.28;2070147;28;20034;-71
2022/04/11 03:25:55;;;;;;;6.20;1.02;;;;;;;15.47;42.51;100791.28;2075254;28;20136;-71
2022/04/11 03:27:21;;;;;;;6.05;0.85;;;;;;;15.48;42.39;100798.38;2070505;28;20065;-71
2022/04/11 03:28:43;;;;;;;10.65;1.02;;;;;;;15.49;42.47;100794.81;2074796;28;20045;-71
2022/04/11 03:30:06;;;;;;;8.98;1.17;;;;;;;15.48;42.52;100791.28;2077219;28;20091;-71
2022/04/11 03:31:31;;;;;;;7.35;0.77;;;;;;;15.46;42.56;100784.19;2077267;28;20069;-71
2022/04/11 03:32:53;;;;;;;6.95;1.00;;;;;;;15.42;42.44;100785.97;2069252;28;20034;-71
2022/04/11 03:34:17;;;;;;;7.60;1.05;;;;;;;15.41;42.62;100791.31;2075653;28;20049;-71
2022/04/11 03:35:39;;;;;;;5.18;0.90;;;;;;;15.41;42.60;100793.97;2061154;28;20050;-71
2022/04/11 03:37:01;;;;;;;12.15;1.52;;;;;;;15.42;42.67;100791.31;2062669;28;20134;-71
2022/04/11 03:38:29;;;;;;;5.00;1.00;;;;;;;15.40;42.58;100787.75;2067557;28;20038;-71
2022/04/11 03:39:55;;;;;;;3.65;0.80;;;;;;;15.38;42.65;100794.84;2073431;28;20060;-71
2022/04/11 03:41:18;;;;;;;9.27;1.02;;;;;;;15.35;42.60;100802.84;2075842;28;20037;-71
2022/04/11 03:42:40;;;;;;;4.47;0.77;;;;;;;15.34;42.64;100794.88;2083843;28;20061;-71
2022/04/11 03:44:02;;;;;;;5.50;0.82;;;;;;;15.33;42.77;100799.31;2077894;28;20065;-71
2022/04/11 03:45:25;;;;;;;4.13;0.70;;;;;;;15.32;42.89;100797.53;2076052;28;20045;-70
2022/04/11 03:46:50;;;;;;;5.45;0.80;;;;;;;15.30;42.90;100793.97;2071100;28;20046;-71
2022/04/11 03:48:19;;;;;;;9.63;1.45;;;;;;;15.26;43.04;100794.88;2070650;28;20053;-71
2022/04/11 03:49:40;;;;;;;7.10;0.93;;;;;;;15.23;43.16;100797.53;2072877;28;20133;-71
2022/04/11 03:51:14;;;;;;;4.53;1.00;;;;;;;15.21;43.12;100790.47;2073344;28;20112;-71
2022/04/11 03:52:37;;;;;;;8.70;1.48;;;;;;;15.18;43.20;100794.03;2068663;28;20054;-70
2022/04/11 03:54:04;;;;;;;7.68;1.08;;;;;;;15.16;43.18;100796.69;2067221;28;20076;-71
2022/04/11 03:55:28;;;;;;;5.68;1.85;;;;;;;15.16;43.32;100802.00;2075660;28;20041;-71
2022/04/11 03:56:50;;;;;;;4.22;1.00;;;;;;;15.15;43.30;100802.91;2069822;28;20112;-70
2022/04/11 03:58:13;;;;;;;6.00;1.10;;;;;;;15.18;43.20;100812.63;2074781;28;20060;-71
2022/04/11 03:59:39;;;;;;;4.57;0.93;;;;;;;15.22;43.37;100805.56;2067822;28;20058;-71
2022/04/11 04:01:03;;;;;;;8.07;1.27;;;;;;;15.22;43.31;100805.56;2069102;28;20077;-70
2022/04/11 04:02:26;;;;;;;4.75;0.85;;;;;;;15.23;43.61;100800.19;2069647;28;20050;-71
2022/04/11 04:03:49;;;;;;;4.28;0.90;;;;;;;15.24;43.76;100794.00;2067161;28;20099;-71
2022/04/11 04:05:10;;;;;;;9.85;1.02;;;;;;;15.26;43.88;100808.19;2065850;28;20190;-71
2022/04/11 04:06:33;;;;;;;7.63;2.10;;;;;;;15.23;44.01;100786.06;2066061;28;20390;-71
2022/04/11 04:07:55;;;;;;;6.70;1.00;;;;;;;15.20;44.38;100796.69;2075461;28;20077;-70
2022/04/11 04:09:17;;;;;;;5.70;0.88;;;;;;;15.15;44.64;100794.94;2068554;28;20072;-71
2022/04/11 04:10:42;;;;;;;10.63;1.33;;;;;;;15.16;44.77;100791.34;2069430;28;20144;-70
2022/04/11 04:12:06;;;;;;;12.15;1.88;;;;;;;15.20;44.90;100794.03;2078151;28;20689;-71
2022/04/11 04:13:38;;;;;;;10.15;1.30;;;;;;;15.27;45.04;100782.47;2073253;28;20061;-71
2022/04/11 04:15:02;;;;;;;5.45;0.82;;;;;;;15.29;45.20;100799.31;2067586;28;20038;-70
2022/04/11 04:16:25;;;;;;;3.15;0.43;;;;;;;15.31;45.22;100792.22;2075530;28;20057;-71
2022/04/11 04:17:53;;;;;;;9.07;0.98;;;;;;;15.36;45.43;100782.47;2075904;28;20578;-71
2022/04/11 04:19:16;;;;;;;6.85;1.15;;;;;;;15.46;45.56;100801.03;2067284;28;20054;-70
2022/04/11 04:20:38;;;;;;;5.25;1.08;;;;;;;15.54;45.68;100798.38;2069425;28;20050;-70
2022/04/11 04:22:01;;;;;;;9.32;1.27;;;;;;;15.63;45.72;100789.44;2076356;28;20048;-71
2022/04/11 04:23:24;;;;;;;6.38;0.88;;;;;;;15.72;45.78;100789.41;2074857;28;20048;-70
2022/04/11 04:24:47;;;;;;;9.43;0.90;;;;;;;15.80;45.76;100787.59;2070637;28;20053;-70
2022/04/11 04:26:10;;;;;;;2.92;0.77;;;;;;;15.89;45.88;100792.84;2072007;28;20460;-71
2022/04/11 04:27:34;;;;;;;9.73;1.27;;;;;;;15.93;45.88;100800.84;2065609;28;20084;-70
2022/04/11 04:28:56;;;;;;;7.28;1.23;;;;;;;15.96;45.75;100781.28;2063047;28;20049;-69
2022/04/11 04:30:21;;;;;;;7.28;1.73;;;;;;;15.93;45.66;100803.50;2075919;28;20041;-70
2022/04/11 04:31:44;;;;;;;6.55;0.90;;;;;;;15.89;45.69;100801.72;2068783;28;20053;-70
2022/04/11 04:33:07;;;;;;;7.53;0.80;;;;;;;15.86;45.85;100817.75;2067061;28;20053;-70
2022/04/11 04:34:30;;;;;;;4.63;0.68;;;;;;;15.82;46.03;100807.09;2068192;28;20038;-70
2022/04/11 04:35:54;;;;;;;5.55;1.65;;;;;;;15.79;46.06;100799.13;2073736;28;20057;-70
2022/04/11 04:37:16;;;;;;;9.43;1.17;;;;;;;15.74;46.20;100801.84;2065183;28;20056;-70
2022/04/11 04:38:39;;;;;;;3.03;0.52;;;;;;;15.68;46.39;100806.31;2069896;28;20053;-70
2022/04/11 04:40:01;;;;;;;6.70;0.68;;;;;;;15.66;46.49;100816.94;2066070;28;20061;-70
2022/04/11 04:41:26;;;;;;;5.70;0.93;;;;;;;15.65;46.63;100824.94;2072861;28;20041;-70
2022/04/11 04:42:50;;;;;;;5.72;0.47;;;;;;;15.60;46.69;100813.44;2066915;28;20057;-70
2022/04/11 04:44:15;;;;;;;6.68;0.82;;;;;;;15.58;46.85;100829.41;2075050;28;20049;-70
2022/04/11 04:45:41;;;;;;;3.92;0.60;;;;;;;15.57;46.92;100818.75;2069945;28;20038;-70
2022/04/11 04:47:25;;;;;;;;;;;;;;;15.52;46.96;100817.00;2078690;28;20076;-72
2022/04/11 04:48:48;;;;;;;5.97;0.90;;;;;;;15.49;47.07;100824.09;2068364;28;19995;-71
2022/04/11 04:50:11;;;;;;;4.60;1.08;;;;;;;15.48;47.10;100809.00;2069552;28;20109;-71
2022/04/11 04:51:33;;;;;;;2.85;0.65;;;;;;;15.47;47.27;100824.09;2082899;28;20488;-71
2022/04/11 04:52:59;;;;;;;16.75;0.90;;;;;;;15.47;47.35;100812.56;2073811;28;20383;-71
2022/04/11 04:54:22;;;;;;;6.97;1.85;;;;;;;15.46;47.46;100817.00;2066949;28;20045;-71
2022/04/11 04:55:45;;;;;;;6.30;0.90;;;;;;;15.47;47.43;100821.44;2074351;28;20072;-71
2022/04/11 04:57:09;;;;;;;8.93;1.20;;;;;;;15.50;47.50;100815.19;2071836;28;20057;-72
2022/04/11 04:58:33;;;;;;;6.10;0.95;;;;;;;15.47;47.79;100813.44;2081037;28;20037;-72
2022/04/11 04:59:56;;;;;;;5.82;0.73;;;;;;;15.46;47.91;100824.97;2075982;28;20044;-72
2022/04/11 05:01:29;;;;;;;4.88;0.88;;;;;;;15.47;47.93;100832.06;2078491;28;20049;-72
2022/04/11 05:02:51;;;;;;;0.93;0.40;;;;;;;15.49;47.97;100821.44;2066526;28;20673;-72
2022/04/11 05:04:18;;;;;;;9.43;1.50;;;;;;;15.49;48.08;100826.75;2075988;28;20045;-73
2022/04/11 05:05:40;;;;;;;7.57;0.70;;;;;;;15.49;47.91;100830.28;2071724;28;20041;-73
2022/04/11 05:07:03;;;;;;;4.97;0.70;;;;;;;15.49;47.90;100837.41;2077262;28;20046;-73
2022/04/11 05:08:27;;;;;;;7.78;1.35;;;;;;;15.48;47.96;100830.31;2061467;28;20046;-73
2022/04/11 05:09:50;;;;;;;7.50;1.10;;;;;;;15.48;48.06;100848.94;2063659;28;20046;-73
2022/04/11 05:11:14;;;;;;;4.43;1.30;;;;;;;15.46;48.16;100838.28;2066551;28;20050;-73
2022/04/11 05:12:41;;;;;;;8.90;1.05;;;;;;;15.48;48.24;100860.47;2069743;28;20054;-73
2022/04/11 05:14:03;;;;;;;8.60;1.08;;;;;;;15.45;48.49;100841.81;2080283;28;20033;-73
2022/04/11 05:15:29;;;;;;;7.97;1.05;;;;;;;15.46;48.56;100856.00;2063609;28;20081;-72
2022/04/11 05:16:59;;;;;;;4.32;1.25;;;;;;;15.44;48.47;100842.72;2067729;28;20084;-72
2022/04/11 05:18:22;;;;;;;6.63;1.23;;;;;;;15.45;48.29;100852.47;2069389;28;20489;-72
2022/04/11 05:19:45;;;;;;;7.38;0.50;;;;;;;15.46;48.39;100862.22;2074644;28;20136;-72
2022/04/11 05:21:08;;;;;;;6.10;0.50;;;;;;;15.45;48.15;100872.84;2069460;28;20435;-73
2022/04/11 05:22:31;;;;;;;4.82;0.85;;;;;;;15.47;48.32;100863.13;2073659;28;20049;-72
2022/04/11 05:23:54;;;;;;;5.50;1.02;;;;;;;15.47;48.30;100858.69;2066498;28;20399;-72
2022/04/11 05:25:18;;;;;;;8.35;1.17;;;;;;;15.48;48.21;100878.19;2073198;28;20056;-73
2022/04/11 05:26:39;;;;;;;5.00;0.70;;;;;;;15.48;47.88;100883.50;2074366;28;20064;-73
2022/04/11 05:28:04;;;;;;;4.38;0.57;;;;;;;15.50;47.65;100871.06;2068558;28;20046;-73
2022/04/11 05:29:30;;;;;;;8.60;1.15;;;;;;;15.51;47.47;100886.16;2066834;28;20988;-73
2022/04/11 05:30:53;;;;;;;3.92;0.80;;;;;;;15.51;47.25;100889.69;2061098;28;20050;-73
2022/04/11 05:32:16;;;;;;;8.23;1.15;;;;;;;15.52;47.12;100878.19;2058973;28;20134;-73
2022/04/11 05:33:38;;;;;;;6.28;0.65;;;;;;;15.53;47.12;100893.28;2067441;28;20044;-73
2022/04/11 05:35:06;;;;;;;4.93;0.90;;;;;;;15.55;47.12;100898.59;2061477;28;20120;-73
2022/04/11 05:36:28;;;;;;;5.30;0.98;;;;;;;15.57;46.89;100898.56;2053157;28;20039;-72
2022/04/11 05:37:50;;;;;;;6.47;0.85;;;;;;;15.58;46.81;100890.59;2066184;28;20061;-73
2022/04/11 05:39:13;;;;;;;3.97;1.02;;;;;;;15.63;46.80;100894.13;2060918;28;20137;-73
2022/04/11 05:40:35;;;;;;;5.00;0.80;;;;;;;15.68;46.72;100895.03;2063467;28;20038;-74
2022/04/11 05:41:59;;;;;;;1.33;0.32;;;;;;;15.81;46.30;100885.22;2077892;28;20156;-74
2022/04/11 05:43:24;;;;;;;3.90;0.95;;;;;;;15.90;46.03;100902.03;2060965;28;20065;-74
2022/04/11 05:44:46;;;;;;;3.10;0.55;;;;;;;16.00;45.75;100900.22;2065086;28;20056;-75
2022/04/11 05:46:10;;;;;;;6.40;0.98;;;;;;;16.05;45.85;100887.75;2074966;28;20152;-74
2022/04/11 05:47:35;;;;;;;8.98;1.25;;;;;;;16.06;45.73;100899.31;2072925;28;20136;-74
2022/04/11 05:48:57;;;;;;;6.38;0.80;;;;;;;16.11;45.87;100902.81;2074606;28;20481;-74
2022/04/11 05:50:20;;;;;;;2.47;0.30;;;;;;;16.18;45.78;100904.56;2068010;28;20081;-74
2022/04/11 05:51:41;;;;;;;5.82;1.73;;;;;;;16.25;45.77;100893.88;2073091;28;20058;-74
2022/04/11 05:53:04;;;;;;;6.47;0.73;;;;;;;16.38;45.68;100909.78;2082025;28;20179;-74
2022/04/11 05:54:27;;;;;;;5.40;0.90;;;;;;;16.45;45.67;100899.09;2069360;28;20137;-74
2022/04/11 05:55:49;;;;;;;5.85;0.88;;;;;;;16.46;45.77;100906.19;2071487;28;20560;-73
2022/04/11 05:57:12;;;;;;;12.23;1.50;;;;;;;16.46;45.91;100916.84;2069004;28;20141;-74
2022/04/11 05:58:36;;;;;;;6.68;0.85;;;;;;;16.54;46.14;100908.81;2069095;28;20079;-74
2022/04/11 06:00:00;;;;;;;5.07;1.20;;;;;;;16.55;45.92;100906.09;2075010;28;20041;-75
2022/04/11 06:01:22;;;;;;;5.32;0.80;;;;;;;16.58;46.10;100915.88;2067233;28;20913;-74
2022/04/11 06:02:45;;;;;;;5.25;1.23;;;;;;;16.72;46.15;100906.94;2074845;28;20379;-74
2022/04/11 06:04:08;;;;;;;6.22;1.00;;;;;;;16.88;45.97;100934.34;2069118;28;20137;-74
2022/04/11 06:05:30;;;;;;;5.90;0.90;;;;;;;16.97;45.95;100930.75;2066008;28;20104;-74
2022/04/11 06:06:53;;;;;;;2.45;0.82;;;;;;;17.03;46.04;100909.34;2073845;28;20041;-73
2022/04/11 06:08:15;;;;;;;6.75;1.95;;;;;;;17.08;45.95;100932.41;2077093;28;20148;-74
2022/04/11 06:09:39;;;;;;;8.43;0.75;;;;;;;17.07;46.17;100938.66;2068283;28;20053;-73
2022/04/11 06:11:02;;;;;;;10.68;1.13;;;;;;;17.03;46.39;100938.69;2073926;28;20080;-73
2022/04/11 06:12:25;;;;;;;4.05;0.98;;;;;;;17.00;46.44;100934.25;2071506;28;20132;-73
2022/04/11 06:13:50;;;;;;;4.05;0.50;;;;;;;16.98;46.38;100929.84;2071414;28;20520;-74
2022/04/11 06:15:17;;;;;;;8.77;1.05;;;;;;;16.95;46.36;100941.41;2069953;28;20049;-74
2022/04/11 06:16:42;;;;;;;4.95;1.13;;;;;;;16.92;46.15;100943.22;2075677;28;20080;-73
2022/04/11 06:18:05;;;;;;;9.13;1.10;;;;;;;16.95;45.85;100938.75;2065629;28;20034;-73
2022/04/11 06:19:27;;;;;;;5.35;1.08;;;;;;;17.13;45.33;100945.75;2068006;28;20053;-73
2022/04/11 06:20:50;;;;;;;8.23;1.20;;;;;;;17.42;44.33;100942.78;2070111;28;20080;-73
2022/04/11 06:22:14;;;;;;;8.80;1.35;;;;;;;17.49;43.98;100955.19;2077771;28;20050;-74
2022/04/11 06:23:36;;;;;;;3.97;0.80;;;;;;;17.45;44.02;100941.00;2077602;28;20049;-73
2022/04/11 06:25:05;;;;;;;8.60;1.00;;;;;;;17.41;43.88;100954.38;2061923;28;20554;-73
2022/04/11 06:26:27;;;;;;;7.13;1.02;;;;;;;17.38;43.89;100941.06;2072537;28;20061;-73
2022/04/11 06:27:51;;;;;;;10.02;1.55;;;;;;;17.41;43.50;100965.94;2066244;28;20664;-73